createdAt,value
2022-12-03T00:00:23.983Z,82.98
2022-12-03T00:02:52.176Z,82.93
2022-12-03T00:05:20.280Z,83.03
2022-12-03T00:07:48.274Z,82.97
2022-12-03T00:10:18.659Z,83.10
2022-12-03T00:12:46.724Z,82.89
2022-12-03T00:15:14.970Z,83.11
2022-12-03T00:17:42.911Z,82.64
2022-12-03T00:20:19.095Z,82.22
2022-12-03T00:22:48.102Z,82.32
2022-12-03T00:25:16.263Z,82.43
2022-12-03T00:27:45.607Z,82.23
2022-12-03T00:30:15.415Z,82.32
2022-12-03T00:32:43.610Z,83.19
2022-12-03T00:35:11.555Z,82.83
2022-12-03T00:37:39.580Z,82.89
2022-12-03T00:40:08.947Z,83.11
2022-12-03T00:42:36.914Z,83.01
2022-12-03T00:45:07.489Z,83.27
2022-12-03T00:47:35.472Z,83.41
2022-12-03T00:50:03.424Z,83.56
2022-12-03T00:52:31.527Z,83.16
2022-12-03T00:54:59.518Z,83.75
2022-12-03T00:57:27.471Z,83.88
2022-12-03T00:59:55.434Z,84.57
2022-12-03T01:02:24.753Z,84.30
2022-12-03T01:04:53.046Z,84.01
2022-12-03T01:07:21.331Z,84.04
2022-12-03T01:09:49.280Z,84.22
2022-12-03T01:12:17.182Z,84.19
2022-12-03T01:14:45.347Z,84.37
2022-12-03T01:17:13.390Z,84.41
2022-12-03T01:19:48.058Z,84.63
2022-12-03T01:22:16.455Z,85.09
2022-12-03T01:24:44.442Z,84.31
2022-12-03T01:27:12.391Z,84.34
2022-12-03T01:29:40.326Z,84.67
2022-12-03T01:32:19.702Z,84.75
2022-12-03T01:34:51.859Z,84.65
2022-12-03T01:37:22.402Z,85.12
2022-12-03T01:39:50.572Z,85.17
2022-12-03T01:42:20.788Z,84.49
2022-12-03T01:44:50.023Z,84.37
2022-12-03T01:47:19.859Z,85.07
2022-12-03T01:49:52.077Z,85.26
2022-12-03T01:52:25.155Z,85.03
2022-12-03T01:54:56.523Z,85.16
2022-12-03T01:57:27.575Z,84.58
2022-12-03T01:59:58.216Z,84.74
2022-12-03T02:02:28.447Z,85.28
2022-12-03T02:04:58.396Z,84.80
2022-12-03T02:07:28.366Z,85.14
2022-12-03T02:09:58.261Z,85.52
2022-12-03T02:12:31.129Z,85.73
2022-12-03T02:14:59.647Z,85.13
2022-12-03T02:17:28.182Z,85.19
2022-12-03T02:19:58.289Z,85.07
2022-12-03T02:22:38.617Z,85.17
2022-12-03T02:25:17.531Z,85.62
2022-12-03T02:27:46.620Z,85.64
2022-12-03T02:30:17.381Z,85.46
2022-12-03T02:32:45.750Z,85.52
2022-12-03T02:35:18.311Z,85.08
2022-12-03T02:37:48.526Z,85.28
2022-12-03T02:40:21.239Z,84.78
2022-12-03T02:42:50.438Z,84.64
2022-12-03T02:45:21.427Z,84.38
2022-12-03T02:47:52.862Z,84.48
2022-12-03T02:50:27.056Z,84.95
2022-12-03T02:52:57.741Z,84.99
2022-12-03T02:55:34.950Z,85.18
2022-12-03T02:58:05.922Z,85.58
2022-12-03T03:00:34.465Z,85.73
2022-12-03T03:03:04.208Z,84.98
2022-12-03T03:05:32.828Z,85.25
2022-12-03T03:08:01.764Z,84.87
2022-12-03T03:10:31.670Z,85.38
2022-12-03T03:13:00.097Z,84.66
2022-12-03T03:15:28.123Z,84.63
2022-12-03T03:17:56.202Z,84.83
2022-12-03T03:20:24.196Z,84.77
2022-12-03T03:22:52.252Z,85.13
2022-12-03T03:25:22.468Z,85.95
2022-12-03T03:27:51.808Z,85.73
2022-12-03T03:30:19.971Z,86.22
2022-12-03T03:32:47.969Z,84.84
2022-12-03T03:35:17.962Z,85.06
2022-12-03T03:37:45.988Z,85.17
2022-12-03T03:40:14.293Z,85.34
2022-12-03T03:42:42.587Z,85.75
2022-12-03T03:45:12.312Z,85.67
2022-12-03T03:47:40.707Z,85.07
2022-12-03T03:50:11.559Z,84.96
2022-12-03T03:52:41.294Z,85.34
2022-12-03T03:55:11.863Z,85.93
2022-12-03T03:57:40.783Z,85.80
2022-12-03T04:00:10.104Z,86.07
2022-12-03T04:02:39.436Z,86.24
2022-12-03T04:05:08.790Z,85.87
2022-12-03T04:07:36.788Z,85.79
2022-12-03T04:10:25.651Z,86.42
2022-12-03T04:12:57.118Z,85.62
2022-12-03T04:15:25.852Z,85.67
2022-12-03T04:18:09.054Z,85.81
2022-12-03T04:20:37.035Z,85.68
2022-12-03T04:23:04.187Z,85.66
2022-12-03T04:25:49.511Z,85.25
2022-12-03T04:28:35.042Z,85.59
2022-12-03T04:31:23.728Z,85.59
2022-12-03T04:34:12.642Z,85.80
2022-12-03T04:36:40.720Z,85.38
2022-12-03T04:39:08.637Z,85.85
2022-12-03T04:41:36.583Z,85.42
2022-12-03T04:44:21.854Z,85.09
2022-12-03T04:46:49.743Z,85.08
2022-12-03T04:49:18.987Z,85.36
2022-12-03T04:51:46.979Z,85.12
2022-12-03T04:54:15.133Z,85.38
2022-12-03T04:56:43.046Z,85.09
2022-12-03T04:59:15.963Z,85.29
2022-12-03T05:01:45.982Z,85.58
2022-12-03T05:04:14.698Z,85.52
2022-12-03T05:06:44.076Z,84.84
2022-12-03T05:09:12.395Z,84.67
2022-12-03T05:11:40.576Z,85.12
2022-12-03T05:14:09.232Z,85.76
2022-12-03T05:16:37.658Z,85.24
2022-12-03T05:19:07.003Z,85.19
2022-12-03T05:21:35.084Z,85.26
2022-12-03T05:24:05.131Z,85.31
2022-12-03T05:26:33.083Z,84.97
2022-12-03T05:29:02.502Z,84.95
2022-12-03T05:31:30.523Z,85.02
2022-12-03T05:33:58.487Z,84.68
2022-12-03T05:36:26.453Z,85.19
2022-12-03T05:38:54.433Z,85.82
2022-12-03T05:41:41.240Z,85.29
2022-12-03T05:44:09.444Z,84.79
2022-12-03T05:46:37.462Z,84.91
2022-12-03T05:49:05.489Z,84.87
2022-12-03T05:51:33.462Z,85.05
2022-12-03T05:54:01.411Z,85.08
2022-12-03T05:56:30.675Z,84.98
2022-12-03T05:58:58.602Z,85.49
2022-12-03T06:01:26.515Z,84.93
2022-12-03T06:03:54.492Z,84.67
2022-12-03T06:06:22.538Z,84.58
2022-12-03T06:08:50.989Z,85.17
2022-12-03T06:11:18.973Z,84.99
2022-12-03T06:13:48.234Z,84.83
2022-12-03T06:16:16.236Z,84.75
2022-12-03T06:18:44.184Z,84.30
2022-12-03T06:21:12.095Z,84.15
2022-12-03T06:23:44.542Z,84.53
2022-12-03T06:26:12.854Z,84.57
2022-12-03T06:28:40.879Z,84.34
2022-12-03T06:31:10.321Z,84.55
2022-12-03T06:33:38.268Z,84.46
2022-12-03T06:36:07.026Z,84.49
2022-12-03T06:38:34.995Z,84.63
2022-12-03T06:41:02.963Z,84.00
2022-12-03T06:43:31.132Z,83.55
2022-12-03T06:45:59.145Z,83.53
2022-12-03T06:48:28.387Z,83.80
2022-12-03T06:50:56.263Z,83.82
2022-12-03T06:53:26.131Z,83.68
2022-12-03T06:55:54.058Z,83.81
2022-12-03T06:58:22.055Z,84.23
2022-12-03T07:00:49.939Z,84.39
2022-12-03T07:03:17.995Z,84.18
2022-12-03T07:05:47.313Z,84.15
2022-12-03T07:08:15.284Z,84.75
2022-12-03T07:10:43.275Z,84.50
2022-12-03T07:13:11.204Z,83.73
2022-12-03T07:15:39.136Z,84.17
2022-12-03T07:18:07.286Z,84.11
2022-12-03T07:20:35.181Z,84.20
2022-12-03T07:23:04.590Z,84.20
2022-12-03T07:25:32.545Z,83.65
2022-12-03T07:28:00.630Z,83.29
2022-12-03T07:30:28.791Z,83.17
2022-12-03T07:32:58.187Z,82.80
2022-12-03T07:35:26.072Z,82.60
2022-12-03T07:37:53.971Z,82.32
2022-12-03T07:40:23.336Z,82.33
2022-12-03T07:42:51.307Z,82.41
2022-12-03T07:45:19.270Z,82.18
2022-12-03T07:47:47.239Z,82.09
2022-12-03T07:50:15.327Z,81.55
2022-12-03T07:52:43.314Z,81.40
2022-12-03T07:55:13.311Z,81.05
2022-12-03T07:57:42.557Z,81.05
2022-12-03T08:00:12.802Z,80.72
2022-12-03T08:02:40.900Z,80.78
2022-12-03T08:05:09.156Z,80.46
2022-12-03T08:07:37.192Z,80.88
2022-12-03T08:10:05.871Z,80.88
2022-12-03T08:12:41.051Z,80.50
2022-12-03T08:15:17.050Z,80.38
2022-12-03T08:17:46.579Z,79.67
2022-12-03T08:20:17.353Z,80.34
2022-12-03T08:22:47.543Z,79.73
2022-12-03T08:25:21.418Z,80.02
2022-12-03T08:27:49.379Z,79.80
2022-12-03T08:30:19.866Z,79.84
2022-12-03T08:32:48.771Z,79.27
2022-12-03T08:35:23.557Z,79.31
2022-12-03T08:37:58.243Z,78.91
2022-12-03T08:40:34.507Z,79.34
2022-12-03T08:43:01.791Z,78.97
2022-12-03T08:45:41.741Z,78.95
2022-12-03T08:48:33.663Z,78.84
2022-12-03T08:51:05.832Z,78.92
2022-12-03T08:53:36.082Z,78.41
2022-12-03T08:56:14.122Z,79.15
2022-12-03T08:58:44.001Z,78.68
2022-12-03T09:01:33.598Z,79.18
2022-12-03T09:04:24.891Z,78.33
2022-12-03T09:06:53.985Z,78.46
2022-12-03T09:09:22.715Z,78.06
2022-12-03T09:11:50.954Z,77.92
2022-12-03T09:14:21.215Z,77.89
2022-12-03T09:16:51.953Z,77.94
2022-12-03T09:19:20.018Z,77.45
2022-12-03T09:21:47.988Z,77.81
2022-12-03T09:24:15.909Z,77.40
2022-12-03T09:26:43.879Z,77.46
2022-12-03T09:29:12.607Z,76.98
2022-12-03T09:31:41.211Z,77.57
2022-12-03T09:34:10.991Z,77.35
2022-12-03T09:36:39.192Z,77.25
2022-12-03T09:39:07.139Z,76.45
2022-12-03T09:41:35.222Z,76.92
2022-12-03T09:44:04.863Z,76.88
2022-12-03T09:46:35.275Z,76.49
2022-12-03T09:49:03.585Z,76.68
2022-12-03T09:51:36.567Z,76.05
2022-12-03T09:54:07.568Z,76.19
2022-12-03T09:56:38.930Z,75.79
2022-12-03T09:59:13.639Z,75.68
2022-12-03T10:01:41.817Z,75.19
2022-12-03T10:04:10.333Z,75.44
2022-12-03T10:06:45.584Z,75.74
2022-12-03T10:09:17.730Z,75.77
2022-12-03T10:11:45.840Z,75.91
2022-12-03T10:14:15.233Z,76.18
2022-12-03T10:16:43.670Z,75.67
2022-12-03T10:19:20.200Z,75.89
2022-12-03T10:21:49.565Z,75.57
2022-12-03T10:24:23.205Z,75.14
2022-12-03T10:26:53.353Z,75.23
2022-12-03T10:29:25.811Z,75.35
2022-12-03T10:31:59.268Z,75.30
2022-12-03T10:34:31.454Z,74.96
2022-12-03T10:37:16.540Z,75.42
2022-12-03T10:39:56.216Z,74.86
2022-12-03T10:42:25.680Z,75.30
2022-12-03T10:45:09.178Z,75.80
2022-12-03T10:47:37.162Z,75.29
2022-12-03T10:50:10.207Z,74.72
2022-12-03T10:52:39.550Z,75.67
2022-12-03T10:55:10.379Z,75.08
2022-12-03T10:57:43.761Z,75.49
2022-12-03T11:00:17.269Z,75.33
2022-12-03T11:02:46.775Z,75.59
2022-12-03T11:05:19.392Z,75.65
2022-12-03T11:07:49.003Z,75.28
2022-12-03T11:10:19.364Z,75.48
2022-12-03T11:13:20.777Z,75.04
2022-12-03T11:15:48.915Z,75.01
2022-12-03T11:18:50.196Z,75.46
2022-12-03T11:21:20.748Z,75.61
2022-12-03T11:24:19.770Z,75.50
2022-12-03T11:27:20.670Z,75.52
2022-12-03T11:30:02.445Z,75.25
2022-12-03T11:33:09.573Z,75.05
2022-12-03T11:36:12.401Z,74.98
2022-12-03T11:38:52.663Z,74.47
2022-12-03T11:41:31.303Z,74.94
2022-12-03T11:44:30.823Z,75.06
2022-12-03T11:47:02.114Z,74.73
2022-12-03T11:49:35.349Z,74.62
2022-12-03T11:52:13.253Z,74.75
2022-12-03T11:54:42.274Z,74.77
2022-12-03T11:57:28.366Z,74.22
2022-12-03T12:00:01.550Z,74.59
2022-12-03T12:02:40.312Z,74.51
2022-12-03T12:05:28.030Z,74.51
2022-12-03T12:07:58.403Z,74.08
2022-12-03T12:10:47.943Z,74.07
2022-12-03T12:13:55.651Z,74.30
2022-12-03T12:16:50.529Z,73.81
2022-12-03T12:19:33.209Z,74.43
2022-12-03T12:22:18.855Z,74.80
2022-12-03T12:24:52.833Z,74.61
2022-12-03T12:27:22.879Z,74.07
2022-12-03T12:29:56.146Z,74.44
2022-12-03T12:32:31.493Z,74.29
2022-12-03T12:35:03.518Z,74.76
2022-12-03T12:37:36.234Z,75.24
2022-12-03T12:40:13.324Z,74.65
2022-12-03T12:42:49.637Z,75.31
2022-12-03T12:45:20.335Z,75.14
2022-12-03T12:48:03.127Z,74.75
2022-12-03T12:50:32.058Z,75.11
2022-12-03T12:53:03.815Z,75.13
2022-12-03T12:55:31.817Z,75.37
2022-12-03T12:58:05.418Z,75.37
2022-12-03T13:00:33.361Z,74.09
2022-12-03T13:03:04.668Z,74.36
2022-12-03T13:05:39.415Z,74.16
2022-12-03T13:08:22.535Z,75.02
2022-12-03T13:10:51.311Z,75.04
2022-12-03T13:13:31.991Z,75.06
2022-12-03T13:16:03.763Z,74.78
2022-12-03T13:18:46.084Z,75.24
2022-12-03T13:21:21.173Z,74.87
2022-12-03T13:23:50.171Z,75.14
2022-12-03T13:29:16.047Z,75.41
2022-12-03T13:31:50.026Z,75.88
2022-12-03T13:34:22.782Z,75.88
2022-12-03T13:36:57.565Z,76.09
2022-12-03T13:39:30.505Z,76.56
2022-12-03T13:42:17.836Z,76.92
2022-12-03T13:44:48.747Z,77.70
2022-12-03T13:47:21.865Z,77.28
2022-12-03T13:49:56.590Z,77.55
2022-12-03T13:52:26.952Z,77.93
2022-12-03T13:54:57.001Z,78.55
2022-12-03T13:57:25.005Z,78.19
2022-12-03T13:59:53.199Z,78.43
2022-12-03T14:02:21.558Z,79.13
2022-12-03T14:04:49.557Z,79.12
2022-12-03T14:07:18.915Z,79.55
2022-12-03T14:09:46.835Z,79.87
2022-12-03T14:12:26.688Z,79.45
2022-12-03T14:14:55.280Z,79.84
2022-12-03T14:17:23.210Z,79.64
2022-12-03T14:19:51.217Z,79.87
2022-12-03T14:22:23.439Z,80.10
2022-12-03T14:24:51.405Z,79.79
2022-12-03T14:27:19.456Z,79.79
2022-12-03T14:29:47.722Z,79.67
2022-12-03T14:32:15.775Z,80.09
2022-12-03T14:34:44.057Z,80.37
2022-12-03T14:37:12.073Z,80.40
2022-12-03T14:39:41.424Z,80.92
2022-12-03T14:42:15.058Z,80.85
2022-12-03T14:44:44.874Z,81.58
2022-12-03T14:47:13.395Z,81.32
2022-12-03T14:49:41.598Z,81.42
2022-12-03T14:52:12.425Z,81.59
2022-12-03T14:54:43.178Z,81.49
2022-12-03T14:57:12.664Z,81.66
2022-12-03T14:59:41.822Z,81.42
2022-12-03T15:02:10.494Z,81.37
2022-12-03T15:04:38.750Z,81.02
2022-12-03T15:07:07.102Z,81.12
2022-12-03T15:09:35.654Z,81.05
2022-12-03T15:12:05.944Z,81.37
2022-12-03T15:14:34.005Z,81.01
2022-12-03T15:17:02.115Z,81.13
2022-12-03T15:19:30.160Z,80.64
2022-12-03T15:21:58.282Z,80.68
2022-12-03T15:24:26.268Z,80.89
2022-12-03T15:26:54.214Z,81.13
2022-12-03T15:29:24.695Z,80.20
2022-12-03T15:31:52.709Z,80.35
2022-12-03T15:34:22.783Z,80.66
2022-12-03T15:36:51.455Z,80.63
2022-12-03T15:39:19.411Z,79.51
2022-12-03T15:41:48.214Z,79.66
2022-12-03T15:44:16.269Z,79.13
2022-12-03T15:46:45.671Z,78.85
2022-12-03T15:49:13.660Z,78.42
2022-12-03T15:51:41.649Z,77.78
2022-12-03T15:54:12.097Z,78.65
2022-12-03T15:56:40.077Z,77.79
2022-12-03T15:59:07.948Z,78.05
2022-12-03T16:01:35.958Z,78.13
2022-12-03T16:04:05.556Z,77.30
2022-12-03T16:06:33.951Z,77.45
2022-12-03T16:09:02.011Z,77.02
2022-12-03T16:11:30.098Z,77.72
2022-12-03T16:13:58.151Z,77.89
2022-12-03T16:16:26.475Z,77.63
2022-12-03T16:18:54.849Z,77.16
2022-12-03T16:21:27.038Z,77.59
2022-12-03T16:23:55.909Z,76.85
2022-12-03T16:26:24.512Z,76.86
2022-12-03T16:28:53.178Z,76.97
2022-12-03T16:31:21.647Z,76.88
2022-12-03T16:33:49.972Z,76.89
2022-12-03T16:36:18.248Z,76.59
2022-12-03T16:38:47.930Z,76.87
2022-12-03T16:41:16.017Z,77.02
2022-12-03T16:43:47.232Z,77.14
2022-12-03T16:46:25.783Z,77.25
2022-12-03T16:48:55.340Z,77.01
2022-12-03T16:51:27.145Z,76.86
2022-12-03T16:53:56.845Z,76.54
2022-12-03T16:56:25.131Z,76.53
2022-12-03T16:58:53.263Z,77.40
2022-12-03T17:01:23.449Z,76.39
2022-12-03T17:03:51.642Z,76.28
2022-12-03T17:06:20.559Z,76.33
2022-12-03T17:08:49.842Z,76.61
2022-12-03T17:11:19.946Z,76.84
2022-12-03T17:13:48.185Z,76.75
2022-12-03T17:16:16.138Z,76.22
2022-12-03T17:18:44.153Z,76.03
2022-12-03T17:21:12.120Z,76.53
2022-12-03T17:23:40.089Z,76.72
2022-12-03T17:26:08.097Z,76.94
2022-12-03T17:28:37.492Z,76.33
2022-12-03T17:31:05.649Z,76.56
2022-12-03T17:33:34.031Z,76.93
2022-12-03T17:36:02.657Z,76.25
2022-12-03T17:38:35.614Z,76.25
2022-12-03T17:41:07.361Z,76.87
2022-12-03T17:43:35.300Z,76.36
2022-12-03T17:46:06.553Z,76.70
2022-12-03T17:48:50.185Z,76.81
2022-12-03T17:51:19.314Z,76.92
2022-12-03T17:53:47.489Z,76.20
2022-12-03T17:56:15.406Z,76.68
2022-12-03T17:58:43.375Z,76.25
2022-12-03T18:01:12.864Z,76.26
2022-12-03T18:03:40.880Z,76.12
2022-12-03T18:06:09.271Z,76.12
2022-12-03T18:08:37.164Z,76.82
2022-12-03T18:11:05.450Z,76.91
2022-12-03T18:13:33.453Z,76.06
2022-12-03T18:16:01.547Z,76.09
2022-12-03T18:18:30.903Z,76.51
2022-12-03T18:21:02.036Z,76.32
2022-12-03T18:23:30.077Z,76.37
2022-12-03T18:25:58.418Z,76.33
2022-12-03T18:28:26.453Z,76.17
2022-12-03T18:30:54.891Z,76.22
2022-12-03T18:33:23.535Z,76.18
2022-12-03T18:35:56.844Z,76.21
2022-12-03T18:38:29.673Z,76.86
2022-12-03T18:40:58.783Z,76.24
2022-12-03T18:43:28.040Z,76.47
2022-12-03T18:45:56.060Z,77.38
2022-12-03T18:48:24.053Z,76.82
2022-12-03T18:50:51.989Z,76.66
2022-12-03T18:53:21.587Z,76.77
2022-12-03T18:55:49.895Z,77.13
2022-12-03T18:58:19.315Z,76.71
2022-12-03T19:00:47.468Z,77.08
2022-12-03T19:03:15.698Z,76.76
2022-12-03T19:05:44.411Z,77.49
2022-12-03T19:08:15.255Z,77.52
2022-12-03T19:10:45.012Z,77.24
2022-12-03T19:13:13.490Z,77.59
2022-12-03T19:15:42.392Z,76.75
2022-12-03T19:18:10.314Z,77.40
2022-12-03T19:20:41.817Z,77.13
2022-12-03T19:23:10.575Z,76.80
2022-12-03T19:25:38.928Z,76.91
2022-12-03T19:28:09.037Z,77.32
2022-12-03T19:30:37.735Z,77.60
2022-12-03T19:33:05.776Z,77.30
2022-12-03T19:35:33.727Z,77.46
2022-12-03T19:38:01.781Z,77.19
2022-12-03T19:40:32.102Z,76.69
2022-12-03T19:43:01.400Z,77.39
2022-12-03T19:45:30.891Z,77.42
2022-12-03T19:48:00.380Z,77.11
2022-12-03T19:50:28.878Z,77.37
2022-12-03T19:52:57.260Z,77.98
2022-12-03T19:55:25.281Z,77.67
2022-12-03T19:57:53.694Z,77.33
2022-12-03T20:00:22.637Z,77.64
2022-12-03T20:02:52.042Z,77.65
2022-12-03T20:05:20.069Z,76.88
2022-12-03T20:07:48.103Z,77.57
2022-12-03T20:10:16.221Z,77.57
2022-12-03T20:12:44.149Z,77.12
2022-12-03T20:15:13.594Z,76.75
2022-12-03T20:17:41.493Z,76.37
2022-12-03T20:20:11.977Z,76.58
2022-12-03T20:22:39.963Z,76.90
2022-12-03T20:25:08.793Z,76.49
2022-12-03T20:27:37.424Z,76.68
2022-12-03T20:30:06.857Z,76.42
2022-12-03T20:32:40.551Z,76.07
2022-12-03T20:35:13.019Z,75.68
2022-12-03T20:37:40.950Z,76.00
2022-12-03T20:40:10.046Z,74.84
2022-12-03T20:42:37.982Z,74.92
2022-12-03T20:45:07.150Z,75.05
2022-12-03T20:47:35.100Z,75.35
2022-12-03T20:50:03.086Z,75.23
2022-12-03T20:52:32.366Z,75.78
2022-12-03T20:55:00.694Z,76.00
2022-12-03T20:57:28.855Z,75.58
2022-12-03T20:59:56.959Z,75.36
2022-12-03T21:02:24.962Z,75.77
2022-12-03T21:04:54.359Z,75.40
2022-12-03T21:07:22.244Z,76.17
2022-12-03T21:09:51.876Z,75.72
2022-12-03T21:12:19.988Z,76.04
2022-12-03T21:14:48.242Z,75.31
2022-12-03T21:17:16.219Z,76.18
2022-12-03T21:19:44.252Z,75.61
2022-12-03T21:22:12.244Z,76.57
2022-12-03T21:24:42.691Z,76.99
2022-12-03T21:27:14.597Z,76.84
2022-12-03T21:29:46.351Z,76.62
2022-12-03T21:32:14.339Z,76.74
2022-12-03T21:34:42.893Z,76.52
2022-12-03T21:37:10.895Z,76.86
2022-12-03T21:39:38.939Z,77.01
2022-12-03T21:42:25.971Z,76.61
2022-12-03T21:44:56.202Z,77.56
2022-12-03T21:47:24.153Z,77.37
2022-12-03T21:49:52.227Z,77.35
2022-12-03T21:52:20.356Z,77.55
2022-12-03T21:54:48.286Z,77.60
2022-12-03T21:57:16.278Z,77.76
2022-12-03T21:59:44.224Z,77.92
2022-12-03T22:02:13.785Z,77.95
2022-12-03T22:04:41.799Z,77.87
2022-12-03T22:07:09.971Z,77.92
2022-12-03T22:09:38.381Z,77.32
2022-12-03T22:12:06.994Z,78.02
2022-12-03T22:14:34.917Z,78.50
2022-12-03T22:17:02.969Z,78.08
2022-12-03T22:19:32.571Z,78.94
2022-12-03T22:22:00.480Z,78.99
2022-12-03T22:24:28.493Z,78.43
2022-12-03T22:26:56.520Z,78.69
2022-12-03T22:29:24.490Z,77.97
2022-12-03T22:31:52.636Z,77.66
2022-12-03T22:34:20.565Z,78.56
2022-12-03T22:36:49.931Z,78.53
2022-12-03T22:39:17.971Z,78.08
2022-12-03T22:41:45.950Z,78.66
2022-12-03T22:44:14.349Z,78.37
2022-12-03T22:46:42.409Z,78.63
2022-12-03T22:49:10.410Z,77.87
2022-12-03T22:51:38.345Z,77.57
2022-12-03T22:54:07.682Z,77.62
2022-12-03T22:56:36.067Z,77.79
2022-12-03T22:59:04.142Z,77.84
2022-12-03T23:01:34.367Z,77.28
2022-12-03T23:04:03.613Z,77.80
2022-12-03T23:06:32.767Z,77.32
2022-12-03T23:09:00.739Z,77.53
2022-12-03T23:11:30.126Z,76.78
2022-12-03T23:13:58.933Z,77.21
2022-12-03T23:16:29.710Z,76.80
2022-12-03T23:18:59.522Z,76.51
2022-12-03T23:21:30.697Z,77.16
2022-12-03T23:23:59.637Z,76.41
2022-12-03T23:26:27.946Z,77.12
2022-12-03T23:28:57.624Z,76.66
2022-12-03T23:31:27.375Z,75.79
2022-12-03T23:33:56.523Z,76.28
2022-12-03T23:36:26.234Z,75.56
2022-12-03T23:38:54.891Z,75.83
2022-12-03T23:41:24.528Z,75.01
2022-12-03T23:43:52.687Z,75.02
2022-12-03T23:46:24.475Z,74.51
2022-12-03T23:48:53.282Z,74.70
2022-12-03T23:51:24.246Z,74.24
2022-12-03T23:53:53.330Z,73.73
2022-12-03T23:56:23.243Z,73.43
2022-12-03T23:58:51.622Z,73.58
